Terminal Aerodrome Forecast
Issued by NWS Sioux Falls, SD

Home | Current Version | Previous Version | Graphics & Text | Print | Product List | Glossary On
Versions: 1 2 3 4 5 6 7 8 9 10 11 12 13
000
FTUS43 KFSD 221720
TAFSUX
TAF
KSUX 221720Z 2218/2318 08008G15KT P6SM BKN100
     FM222100 01015G22KT P6SM VCTS OVC050CB
     FM230200 35008KT P6SM BKN080
     FM230300 35007KT P6SM SCT120
     FM231000 30006KT P6SM SCT200
     FM231600 32014G22KT P6SM SCT090=

USA.gov is the U.S. government's official web portal to all federal, state and local government web resources and services.